createdAt,value
2022-12-01T02:58:19.011Z,10.45
2022-12-01T03:03:37.895Z,8.57
2022-12-01T03:08:55.531Z,10.75
2022-12-01T03:14:23.181Z,13.48
2022-12-01T03:19:34.922Z,8.63
2022-12-01T03:24:42.590Z,10.50
2022-12-01T03:29:50.819Z,9.27
2022-12-01T03:35:06.461Z,7.43
2022-12-01T03:40:15.314Z,16.63
2022-12-01T03:45:27.487Z,17.90
2022-12-01T03:55:44.636Z,10.07
2022-12-01T04:00:51.890Z,14.20
2022-12-01T04:05:56.828Z,9.73
2022-12-01T04:11:01.339Z,10.88
2022-12-01T04:16:06.385Z,9.13
2022-12-01T04:21:10.429Z,10.55
2022-12-01T04:26:15.898Z,9.18
2022-12-01T04:31:19.936Z,8.77
2022-12-01T04:36:25.871Z,17.02
2022-12-01T04:41:29.847Z,10.77
2022-12-01T04:46:34.441Z,10.95
2022-12-01T04:51:38.747Z,10.27
2022-12-01T04:56:42.966Z,8.90
2022-12-01T05:01:48.606Z,9.00
2022-12-01T05:06:55.895Z,10.98
2022-12-01T05:12:00.575Z,10.55
2022-12-01T05:17:04.723Z,12.07
2022-12-01T05:22:09.062Z,8.20
2022-12-01T05:27:13.318Z,9.05
2022-12-01T05:32:25.215Z,12.25
2022-12-01T05:37:49.354Z,10.60
2022-12-01T05:42:54.774Z,14.90
2022-12-01T05:47:59.830Z,14.30
2022-12-01T05:53:04.715Z,13.98
2022-12-01T05:58:08.942Z,11.23
2022-12-01T06:03:13.378Z,17.15
2022-12-01T06:08:17.924Z,11.43
2022-12-01T06:13:22.280Z,18.52
2022-12-01T06:18:28.302Z,17.30
2022-12-01T06:23:34.086Z,23.60
2022-12-01T06:28:38.770Z,34.72
2022-12-01T06:33:43.645Z,18.08
2022-12-01T06:38:48.415Z,22.92
2022-12-01T06:43:52.778Z,14.82
2022-12-01T06:48:57.149Z,17.50
2022-12-01T06:54:05.465Z,17.00
2022-12-01T06:59:14.260Z,14.85
2022-12-01T07:04:18.256Z,16.20
2022-12-01T07:09:23.024Z,19.30
2022-12-01T07:14:28.297Z,22.27
2022-12-01T07:19:32.917Z,58.78
2022-12-01T07:24:37.337Z,25.73
2022-12-01T07:29:41.212Z,26.90
2022-12-01T07:34:44.841Z,29.95
2022-12-01T07:39:48.823Z,40.50
2022-12-01T07:44:53.086Z,39.67
2022-12-01T07:49:58.339Z,28.52
2022-12-01T07:55:03.068Z,28.00
2022-12-01T08:00:08.230Z,29.10
2022-12-01T08:05:15.729Z,20.95
2022-12-01T08:10:20.164Z,15.88
2022-12-01T08:15:24.587Z,17.33
2022-12-01T08:20:29.609Z,16.55
2022-12-01T08:25:33.245Z,10.15
2022-12-01T08:30:37.482Z,8.65
2022-12-01T08:35:41.938Z,6.68
2022-12-01T08:40:45.985Z,8.18
2022-12-01T08:45:50.138Z,5.32
2022-12-01T08:51:04.599Z,1.17
2022-12-01T08:56:15.001Z,1.65
2022-12-01T09:01:19.775Z,1.13
2022-12-01T09:06:24.262Z,1.42
2022-12-01T09:11:28.314Z,1.10
2022-12-01T09:16:33.254Z,0.80
2022-12-01T09:21:37.960Z,1.42
2022-12-01T09:26:43.058Z,0.73
2022-12-01T09:31:47.531Z,0.75
2022-12-01T09:36:52.273Z,0.80
2022-12-01T09:42:14.351Z,0.80
2022-12-01T09:47:28.905Z,3.00
2022-12-01T09:52:55.205Z,1.88
2022-12-01T09:58:02.862Z,2.03
2022-12-01T10:03:21.945Z,2.17
2022-12-01T10:08:32.363Z,1.77
2022-12-01T10:13:36.640Z,1.08
2022-12-01T10:18:40.837Z,2.95
2022-12-01T10:23:50.750Z,2.13
2022-12-01T10:29:12.719Z,3.65
2022-12-01T10:34:33.987Z,2.33
2022-12-01T10:39:44.878Z,2.47
2022-12-01T10:44:50.188Z,2.13
2022-12-01T10:49:54.276Z,2.13
2022-12-01T10:54:57.835Z,1.80
2022-12-01T11:00:09.261Z,2.53
2022-12-01T11:05:41.701Z,1.08
